Extreme weather reports worldwide

High gusts

Station
 
Location
 
Name
 
Wind
Knots
Gust
Knots
Vis
SM
Temp/Dew
C
Baro
inHg
METAR
 
KUT UGKO Kutaisi, GE Kopitnari Airport 28 40 6.21 27/16 29.65 UGKO 100430Z 08028G40KT CAVOK 27/16 Q1004 NOSIG
WYA YWHA Whyalla, AU Whyalla Airport 25 35 6.21 17/6 29.91 YWHA 100430Z AUTO 36025G35KT 9999 // OVC091 17/06 Q1013
LGH YLEC AU Leigh Creek Airport 23 33 6.21 13/6 30.00 YLEC 100417Z AUTO 02023G33KT 9999 // SCT034 SCT056 BKN072 13/06 Q1016
CAO KCAO Clayton, US Clayton Municipal Airpark 20 33 2 19/13 30.30 KCAO 100455Z AUTO 03020G33KT 2SM -TSRA BKN055 OVC080 19/13 A3030 RMK AO2 PK WND 04033/0453 VIS 1/2V5 LTG DSNT SW RAB53 TSB38 SLP193 P0000 T01940133
CWQS 27 32 12/10 CWQS 100400Z AUTO 33027G32KT 13/10 RMK AO1 PK WND 32035/0311 SLP188 T01290100 56004

Station
 
Location
 
Name
 
Wind
Knots
Gust
Knots
Vis
SM
Temp/Dew
C
Baro
inHg
METAR
 
NLK YSNF Burnt Pine, NF Norfolk Island International Airport 21 31 6.21 15/8 29.79 YSNF 100430Z AUTO 24021G31KT 9999 // SCT034 BKN047 BKN063 15/08 Q1009
OGG PHOG Kahului, US Kahului Airport 20 31 10 27/18 29.99 PHOG 100454Z 06020G31KT 10SM FEW040 27/19 A2999 RMK AO2 PK WND 07034/0426 SLP160 T02720189
SEZ FSIA Mahe Island, SC Seychelles International Airport 18 30 6.21 25/21 29.88 FSIA 100400Z 12018G30KT 080V170 9999 SCT021 25/21 Q1012 NOSIG
VAR LBWN Varna, BG Varna Airport 18 30 6.21 24/15 29.88 LBWN 100430Z 02018G30KT CAVOK 24/15 Q1012 NOSIG
LKN ENLK Leknes, NO Leknes Airport 20 30 3.11 13/13 29.73 ENLK 100450Z 17020G30KT 5000 -DZRA FEW003 SCT005 BKN007 13/13 Q1007
CWZN 23 29 13/12 CWZN 100400Z AUTO 04023G29KT 14/12 RMK AO1 PK WND 06032/0313 SLP125 T01360121 53016
SSJ ENST Alstahaug, NO Sandnessjøen Airport (Stokka) 19 29 3.11 14/13 29.88 ENST 100450Z 20019G29KT 5000 RA SCT004 BKN006 14/13 Q1012 RMK WIND 300FT 20024G34KT
OKAS KW Ali Al Salem Air Base 23 29 3.11 37/6 29.41 OKAS 100455Z 32023G29KT 5000 BLDU CLR 37/06 A2941 RMK AO2A PK WND 33029/47 SLP951
CWAR 20 28 13/12 CWAR 100400Z AUTO 02020G28KT 14/12 RMK AO1 5008 PK WND 02031/0340 SLP122 T01370121 50056
CWND 23 28 5/3 CWND 100400Z AUTO 27023G28KT 05/04 RMK AO1 PK WND 27028/0359 SLP053 T00500036 53009
AEY BIAR Akureyri, IS Akureyri Airport 16 27 6.21 13/8 29.17 BIAR 100400Z 18016G27KT 9999 SCT051 13/08 Q0988
YPO CYPO Peawanuck, CA Peawanuck Airport 17 27 6 10/10 29.60 CYPO 100423Z AUTO 30017G27KT 6SM BR OVC005 10/10 A2960 RMK SLP026
YUB CYUB Tuktoyaktuk, CA Tuktoyaktuk Airport 18 27 15 8/6 29.74 CYUB 100450Z 30018G27KT 15SM OVC011 08/06 A2974 RMK SC8 SLP074
NZCM 20 27 6.21 -13/-18 28.83 NZCM 100455Z AUTO 19020G27KT 9999 FEW075 OVC190 M14/M18 A2883 RMK AO2 PK WND 20027/0452 SLP767 T11381181 $
CWRO 21 26 13/ CWRO 100400Z AUTO 28021G26KT 14/ RMK AO1 PK WND 27028/0330 SLP183 T0137 56006
YYT CYYT St. John's, CA St. John's International Airport 19 26 3 12/12 29.93 CYYT 100400Z 10019G26KT 3SM -RA BR OVC004 12/12 A2993 RMK SF8 SLP139
LRTZ RO Tuzla Romania Airfield 16 26 6.21 23/18 29.91 LRTZ 100400Z 36016G26KT 9999 BKN100 23/18 Q1013 BLU BLU
YGL CYGL La Grande Rivière, CA La Grande Rivière Airport 18 26 15 18/14 29.57 CYGL 100427Z 21018G26KT 15SM -RA SCT100 OVC150 18/14 A2957 RMK AC3AC5 SLP020 DENSITY ALT 1500FT
KMWN 21 26 0 11/11 KMWN 100450Z 24021G26KT 0SM FG VV000 11/11 RMK 401520104
MRU FIMP Port Louis, MU Sir Seewoosagur Ramgoolam International Airport 14 25 6.21 20/15 30.24 FIMP 100400Z 15014G25KT 9999 VCSH BKN016 20/15 Q1024
LRFT 15 25 6.21 19/17 29.97 LRFT 100400Z 01015G25KT 9999 SCT060 SCT120 19/17 Q1015 BLU BLU
VVI SLVR Santa Cruz, BO Viru Viru International Airport 14 25 6.21 16/5 30.30 SLVR 100400Z 18014G25KT 9999 NSC 16/05 Q1026
ALH YABA Albany, AU Albany Airport 15 25 6.21 14/10 30.12 YABA 100406Z AUTO 23015G25KT 9999 // SCT028 BKN031 BKN036 14/10 Q1020
RJK LDRI Rijeka, HR Rijeka Airport 9 25 6.21 24/9 30.06 LDRI 100430Z VRB09G25KT 9999 FEW040 24/09 Q1018
CJB VOCB Coimbatore, IN Coimbatore International Airport 15 25 3.11 29/19 29.76 VOCB 100430Z 23015G25KT 5000 HZ SCT012 29/19 Q1008 NOSIG
CCK YPCC Cocos (Keeling) Islands, CC Cocos (Keeling) Islands Airport 15 25 6.21 28/22 29.88 YPCC 100441Z AUTO 11015G25KT 9999 // SCT026 SCT033 BKN049 28/22 Q1012
KKNB Kanab, US Kanab Municipal Airport 15 25 3 19/17 30.32 KKNB 100455Z AUTO 11015G25KT 3SM BR FEW002 SCT018 BKN070 19/17 A3032 RMK A01 P0002
CWVH 18 24 7/4 29.75 CWVH 100400Z AUTO 29018G24KT ////SM NCD 07/04 A2975
RJTF Tokyo, JP Chofu Airport 13 24 6.21 34/24 29.79 RJTF 100400Z 18013G24KT 150V220 9999 FEW030 BKN/// 34/24 Q1009
VOBM 14 24 3.11 22/20 29.73 VOBM 100430Z 27014G24KT 5000 -RA SCT007 SCT012 BKN080 22/20 Q1007
VOKU 14 24 3.11 27/21 29.65 VOKU 100430Z 22014G24KT 5000 HZ FEW018 OVC100 27/21 Q1004
SUU KSUU Fairfield, US Travis Air Force Base 18 23 10 19/12 29.92 KSUU 100358Z AUTO 23018G23KT 10SM CLR 19/12 A2992 RMK AO2 SLP138 T01910124 $
VEBN 13 23 2.49 30/26 29.41 VEBN 100430Z 06013G23KT 4000 HZ FEW010 SCT020 BKN080 30/26 Q0996 NOSIG
RDD KRDD Redding, US Redding Municipal Airport 17 23 10 30/5 29.86 KRDD 100453Z AUTO 17017G23KT 10SM CLR 30/05 A2986 RMK AO2 SLP104 T03000050
KNJM Swansboro, US Bogue Field Mcalf Airport 11 22 10 30/25 30.12 KNJM 100357Z AUTO 24011G22KT 10SM CLR 30/25 A3012 RMK AO2 SLP204 T03000250
CBAR 15 22 9/5 29.72 CBAR 100400Z AUTO 25015G22KT ////SM SCT049 OVC060 09/05 A2972
CWHT 13 22 13/3 CWHT 100400Z AUTO 27013G22KT 14/04 RMK AO1 PK WND 24024/0336 SLP146 T01370039 53003
CWJU 16 22 13/11 CWJU 100400Z AUTO 31016G22KT 13/11 RMK AO1 PK WND 31025/0300 SLP213 T01300110 55004
BOM VABB Mumbai, IN Chhatrapati Shivaji International Airport 12 22 0.99 29/27 29.47 VABB 100430Z 21012G22KT 1600 RA SCT012 SCT015 FEW030CB OVC080 29/27 Q0998 TEMPO 0800 +SHRA
PAT VEPT Patna, IN Lok Nayak Jayaprakash Airport 12 22 2.49 30/26 29.41 VEPT 100430Z 13012G22KT 4000 HZ FEW012 SCT018 BKN100 30/26 Q0996 NOSIG
MHV KMHV Mojave, US Mojave Airport 13 22 10 28/8 30.02 KMHV 100440Z AUTO 28013G22KT 10SM CLR 28/08 A3002 RMK A01
KWA PKWA Kwajalein, MH Bucholz Army Air Field 18 22 10 29/24 29.79 PKWA 100440Z AUTO 06018G22KT 10SM SCT021 SCT037 SCT050 30/25 A2979 RMK AO2 T02970248
MCB KMCB Mc Comb, US Mc Comb/Pike County Airport/John E Lewis Field 5 22 10 23/22 30.07 KMCB 100453Z AUTO 13005G22KT 10SM CLR 24/22 A3007 RMK AO2 SLP175 T02390222
PSP KPSP Palm Springs, US Palm Springs International Airport 15 22 10 36/11 29.86 KPSP 100453Z 32015G22KT 10SM CLR 36/12 A2986 RMK AO2 SLP107 T03610117
MKK PHMK Kaunakakai, US Molokai Airport 16 22 10 26/20 30.02 PHMK 100454Z AUTO 05016G22KT 10SM CLR 26/20 A3002 RMK AO2 SLP168 T02610200 TSNO $